KELA

Eagle Lake Airport

Eagle Lake, Texas, USA
METAR KELA 250035Z AUTO 13005KT 10SM CLR 27/24 A2998 RMK AO2 T02650237
Observed Flight Rules
May-25 @ 00:35 UTC (13 minutes ago) Visual Flight Rules
Wind Visibility Clouds
130° at 5 knots 10 miles
  • Clear skies
Temperatures Readings
Current 27°C / 81°F
Dewpoint 24°C / 75°F
Humidity 84%
Altimeter 29.98" Hg
Pressure 1015 hPa
Elevation 56
METAR KELA 250035Z AUTO 13005KT 10SM CLR 27/24 A2998 RMK AO2 T02650237
Observed Flight Rules
May-25 @ 00:35 UTC
(13 minutes ago)
VFR
Wind Visibility
130° at 5 knots 10 miles
Clouds
  • Clear skies
Temperature Dewpoint
27°C / 81°F 24°C / 75°F
Humidity Altimeter Pressure
84% 29.98" Hg 1015 hPa